Time;durP1;ratioP1;P1;durP2;ratioP2;P2;SDS_P1;SDS_P2;PMS_P1;PMS_P2;Temp;Humidity;BMP_temperature;BMP_pressure;BME280_temperature;BME280_humidity;BME280_pressure;Samples;Min_cycle;Max_cycle;Signal;HPM_P1;HPM_P2
2021/04/05 00:00:19;;;;;;;62.20;24.80;;;8.40;99.90;;;8.48;82.79;101049.06;5091269;28;20051;-70
2021/04/05 00:02:46;;;;;;;59.58;23.13;;;8.40;99.90;;;8.71;82.90;101072.97;5092636;28;20230;-70
2021/04/05 00:05:18;;;;;;;59.13;23.40;;;8.40;99.90;;;8.70;82.26;101060.63;5092384;28;20044;-70
2021/04/05 00:07:48;;;;;;;62.40;24.40;;;8.50;99.90;;;8.73;82.93;101073.84;5094651;28;20123;-70
2021/04/05 00:10:21;;;;;;;58.53;23.10;;;8.40;99.90;;;8.75;82.92;101062.44;5096630;28;20555;-70
2021/04/05 00:12:50;;;;;;;64.45;23.88;;;8.50;99.90;;;8.73;82.86;101060.69;5096503;28;20378;-70
2021/04/05 00:15:19;;;;;;;65.38;22.90;;;8.50;99.90;;;8.70;82.80;101047.44;5096024;28;20489;-70
2021/04/05 00:17:50;;;;;;;71.22;23.65;;;8.50;99.90;;;8.73;83.01;101056.25;5096243;28;20040;-70
2021/04/05 00:20:22;;;;;;;73.28;24.42;;;8.50;99.90;;;8.68;83.46;101036.00;5095911;28;20058;-70
2021/04/05 00:22:55;;;;;;;66.97;23.67;;;8.50;99.90;;;8.84;83.77;101059.88;5096415;28;20078;-70
2021/04/05 00:25:23;;;;;;;67.38;23.80;;;8.50;99.90;;;8.88;83.70;101063.41;5111885;28;20097;-71
2021/04/05 00:27:52;;;;;;;64.45;22.90;;;8.60;99.90;;;8.87;83.69;101058.97;5095947;28;20043;-70
2021/04/05 00:30:26;;;;;;;72.05;24.67;;;8.60;99.90;;;8.83;84.52;101058.09;5096068;28;20451;-70
2021/04/05 00:33:04;;;;;;;60.85;21.55;;;8.60;99.90;;;8.97;84.56;101059.03;5094581;28;20421;-70
2021/04/05 00:35:34;;;;;;;66.88;23.95;;;8.70;99.90;;;8.95;84.38;101050.25;5095987;28;20044;-70
2021/04/05 00:38:05;;;;;;;66.88;22.42;;;8.80;99.90;;;8.84;84.53;101006.22;5094733;28;20074;-70
2021/04/05 00:40:36;;;;;;;64.57;23.08;;;8.70;99.90;;;9.03;84.46;101030.06;5095871;28;20040;-71
2021/04/05 00:43:05;;;;;;;67.32;22.20;;;8.80;99.90;;;9.06;84.52;101026.53;5095780;28;20051;-70
2021/04/05 00:45:34;;;;;;;66.18;21.58;;;8.80;99.90;;;9.06;84.35;101015.97;5095636;28;20072;-71
2021/04/05 00:48:03;;;;;;;65.22;21.63;;;8.80;99.90;;;9.06;84.88;101014.22;5111453;28;20055;-70
2021/04/05 00:50:44;;;;;;;65.53;20.15;;;8.80;99.90;;;9.12;84.55;100986.97;5095695;28;20131;-71
2021/04/05 00:53:18;;;;;;;64.88;21.27;;;8.80;99.90;;;9.20;84.88;101011.63;5094515;28;20050;-70
2021/04/05 00:55:47;;;;;;;64.50;19.27;;;8.90;99.90;;;9.41;84.77;101031.94;5095357;28;20481;-70
2021/04/05 00:58:16;;;;;;;68.50;20.73;;;9.10;99.90;;;9.25;83.93;100972.06;5095287;28;20101;-71
2021/04/05 01:00:52;;;;;;;72.57;19.85;;;9.20;99.90;;;9.40;83.87;101007.31;5094304;28;20085;-70
2021/04/05 01:03:25;;;;;;;60.10;19.33;;;9.20;99.90;;;9.42;84.59;101023.16;5095399;28;20048;-70
2021/04/05 01:05:54;;;;;;;65.72;19.98;;;9.20;99.90;;;9.53;84.51;101008.19;5095358;28;20048;-69
2021/04/05 01:08:22;;;;;;;58.47;18.95;;;9.20;99.90;;;9.53;83.64;100990.59;5110773;28;20049;-70
2021/04/05 01:10:50;;;;;;;56.13;19.75;;;9.40;99.90;;;9.73;83.80;101010.00;5094020;28;20040;-70
2021/04/05 01:13:19;;;;;;;62.90;20.33;;;9.50;99.90;;;9.70;83.10;101004.72;5095594;28;20530;-70
2021/04/05 01:15:49;;;;;;;62.53;20.55;;;9.50;99.90;;;9.74;83.58;100995.91;5095056;28;20048;-71
2021/04/05 01:18:20;;;;;;;59.92;19.80;;;9.50;99.90;;;9.90;82.90;100994.16;5094213;28;20070;-71
2021/04/05 01:20:56;;;;;;;62.40;20.05;;;9.70;99.90;;;9.87;82.95;100997.69;5095004;28;20052;-71
2021/04/05 01:23:25;;;;;;;59.05;20.08;;;9.70;99.90;;;9.90;82.24;100987.13;5095375;28;20062;-71
2021/04/05 01:25:55;;;;;;;57.10;19.00;;;9.70;99.90;;;9.97;81.92;100977.41;5095055;28;20044;-70
2021/04/05 01:28:23;;;;;;;62.17;19.58;;;9.80;99.90;;;9.87;81.66;100929.00;5093723;28;20051;-70
2021/04/05 01:30:53;;;;;;;55.45;19.95;;;9.80;99.90;;;10.02;81.24;100947.50;5094754;28;20123;-70
2021/04/05 01:33:23;;;;;;;;;;;9.80;99.90;;;9.96;81.76;100943.97;5095219;28;20040;-70
2021/04/05 01:35:57;;;;;;;60.25;21.23;;;9.80;99.90;;;9.99;81.44;100941.31;5093419;28;19920;-71
2021/04/05 01:38:30;;;;;;;63.78;20.73;;;9.80;99.90;;;9.78;81.40;100914.91;5093540;28;20055;-70
2021/04/05 01:41:01;;;;;;;62.72;21.17;;;9.80;99.90;;;9.88;81.31;100927.22;5094661;28;20080;-71
2021/04/05 01:43:28;;;;;;;;;;;9.70;99.90;;;9.87;81.52;100938.69;5093699;28;20404;-70
2021/04/05 01:45:59;;;;;;;59.67;21.30;;;9.70;99.90;;;9.82;80.78;100924.59;5094450;28;19977;-71
2021/04/05 01:48:31;;;;;;;47.35;20.23;;;9.70;99.90;;;9.80;80.89;100916.69;5094424;28;20059;-71
2021/04/05 01:51:05;;;;;;;50.00;19.42;;;9.70;99.90;;;9.81;80.33;100923.72;5093198;28;20060;-70
2021/04/05 01:53:36;;;;;;;50.60;19.70;;;9.60;99.90;;;9.62;79.37;100889.41;5094445;28;20036;-70
2021/04/05 01:56:06;;;;;;;42.20;19.40;;;9.60;99.90;;;9.71;78.88;100899.97;5094118;28;20044;-70
2021/04/05 01:58:37;;;;;;;45.67;18.15;;;9.50;99.90;;;9.84;78.71;100901.69;5094379;28;20123;-71
2021/04/05 02:01:10;;;;;;;49.75;18.58;;;9.60;99.90;;;9.79;78.22;100888.47;5094463;28;20044;-70
2021/04/05 02:03:39;;;;;;;40.42;18.58;;;9.60;99.90;;;9.81;77.84;100896.44;5094245;28;20040;-71
2021/04/05 02:06:11;;;;;;;41.78;17.98;;;9.60;99.90;;;9.89;77.45;100886.75;5094097;28;20119;-70
2021/04/05 02:08:40;;;;;;;40.15;17.63;;;9.70;99.90;;;9.88;76.52;100885.84;5093932;28;20492;-71
2021/04/05 02:11:10;;;;;;;36.42;17.13;;;9.70;99.90;;;9.89;76.08;100874.38;5094149;28;20070;-70
2021/04/05 02:13:38;;;;;;;34.13;17.35;;;9.70;99.90;;;9.96;75.75;100875.28;5094130;28;20051;-71
2021/04/05 02:16:06;;;;;;;41.97;17.83;;;9.80;99.90;;;9.83;76.09;100863.81;5093820;28;20044;-70
2021/04/05 02:18:36;;;;;;;31.42;16.45;;;9.70;99.90;;;9.95;75.67;100869.09;5094034;28;20040;-71
2021/04/05 02:21:10;;;;;;;34.80;17.30;;;9.70;99.90;;;9.90;75.67;100857.66;5093918;28;20052;-70
2021/04/05 02:23:39;;;;;;;34.30;17.23;;;9.80;99.90;;;9.90;75.17;100833.91;5093864;28;20497;-71
2021/04/05 02:26:10;;;;;;;39.30;17.23;;;9.90;99.90;;;10.03;74.97;100864.69;5093773;28;20059;-70
2021/04/05 02:28:44;;;;;;;42.60;17.38;;;9.90;99.90;;;10.16;74.59;100833.88;5094000;28;20297;-71
2021/04/05 02:31:16;;;;;;;34.35;17.02;;;9.90;99.90;;;10.19;74.56;100836.47;5093445;28;20039;-71
2021/04/05 02:33:53;;;;;;;34.92;17.80;;;10.00;99.90;;;10.18;74.66;100839.13;5093460;28;20540;-70
2021/04/05 02:36:23;;;;;;;30.58;16.90;;;10.00;99.90;;;9.56;74.38;100710.72;5093523;28;20561;-71
2021/04/05 02:38:58;;;;;;;34.00;17.38;;;10.10;99.90;;;10.21;74.57;100828.53;5093612;28;20046;-71
2021/04/05 02:41:29;;;;;;;36.80;16.38;;;10.00;99.90;;;10.24;74.60;100807.41;5093456;28;20036;-71
2021/04/05 02:44:02;;;;;;;34.17;17.60;;;10.00;99.90;;;10.27;74.62;100808.25;5093596;28;20131;-70
2021/04/05 02:46:34;;;;;;;33.85;16.65;;;10.00;99.90;;;10.16;74.28;100798.63;5093468;28;20044;-70
2021/04/05 02:49:06;;;;;;;32.97;16.63;;;10.00;99.90;;;10.23;74.21;100798.59;5093259;28;20447;-70
2021/04/05 02:51:34;;;;;;;35.92;16.25;;;10.10;99.90;;;10.19;74.31;100794.19;5093271;28;20501;-70
2021/04/05 02:54:04;;;;;;;38.53;16.35;;;10.00;99.90;;;10.27;74.08;100788.88;5093310;28;20042;-70
2021/04/05 02:56:38;;;;;;;34.22;17.02;;;10.10;99.90;;;10.29;74.18;100781.81;5093128;28;20439;-70
2021/04/05 02:59:10;;;;;;;36.95;16.83;;;10.10;99.90;;;10.33;74.13;100773.88;5093140;28;20044;-71
2021/04/05 03:01:40;;;;;;;37.35;17.33;;;10.10;99.90;;;10.38;73.76;100766.78;5093231;28;20066;-70
2021/04/05 03:04:09;;;;;;;30.55;17.23;;;10.20;99.90;;;10.28;74.06;100762.41;5091987;28;20070;-70
2021/04/05 03:06:36;;;;;;;38.80;18.23;;;10.10;99.90;;;10.27;73.85;100760.69;5093031;28;20036;-71
2021/04/05 03:09:07;;;;;;;33.72;17.80;;;10.10;99.90;;;10.18;74.84;100763.34;5092887;28;20093;-71
2021/04/05 03:11:37;;;;;;;33.70;17.80;;;10.00;99.90;;;10.27;74.19;100767.72;5092898;28;20064;-71
2021/04/05 03:14:12;;;;;;;33.60;17.63;;;10.10;99.90;;;10.20;74.25;100737.78;5091760;28;20044;-70
2021/04/05 03:16:42;;;;;;;42.97;18.52;;;10.10;99.90;;;10.30;74.46;100758.00;5093016;28;20042;-70
2021/04/05 03:19:13;;;;;;;38.50;19.30;;;10.10;99.90;;;10.24;74.19;100743.97;5092906;28;20052;-71
2021/04/05 03:21:45;;;;;;;37.80;17.33;;;10.10;99.90;;;10.35;74.00;100745.66;5093200;28;20515;-71
2021/04/05 03:24:14;;;;;;;40.38;19.00;;;10.10;99.90;;;10.29;74.48;100734.22;5093338;28;20485;-70
2021/04/05 03:26:44;;;;;;;39.40;17.98;;;10.10;99.90;;;10.40;74.25;100738.56;5092835;28;20386;-70
2021/04/05 03:29:15;;;;;;;44.05;19.85;;;10.20;99.90;;;10.37;74.47;100732.44;5092754;28;20044;-70
2021/04/05 03:31:45;;;;;;;31.85;18.05;;;10.20;99.90;;;10.29;74.33;100715.72;5091537;28;20051;-71
2021/04/05 03:34:20;;;;;;;31.50;17.93;;;10.10;99.90;;;10.33;74.08;100720.13;5091543;28;20413;-71
2021/04/05 03:36:54;;;;;;;32.38;17.75;;;10.20;99.90;;;10.31;74.39;100721.88;5108607;28;20294;-70
2021/04/05 03:39:22;;;;;;;35.63;18.73;;;10.20;99.90;;;10.21;74.40;100709.59;5092754;28;20134;-70
2021/04/05 03:41:55;;;;;;;33.88;17.88;;;10.10;99.90;;;10.20;74.48;100698.13;5093541;28;20098;-71
2021/04/05 03:44:35;;;;;;;34.72;18.35;;;10.10;99.90;;;10.24;74.77;100712.25;5096841;28;20044;-71
2021/04/05 03:47:10;;;;;;;30.02;17.33;;;10.00;99.90;;;10.24;74.28;100706.97;5097414;28;20496;-71
2021/04/05 03:49:46;;;;;;;35.90;18.42;;;10.10;99.90;;;10.16;74.74;100709.66;5096890;28;20055;-70
2021/04/05 03:52:24;;;;;;;30.52;17.88;;;10.00;99.90;;;10.25;74.48;100706.06;5096889;28;20512;-70
2021/04/05 03:54:55;;;;;;;31.63;16.65;;;10.10;99.90;;;10.20;74.65;100699.94;5096740;28;20570;-71
2021/04/05 03:57:29;;;;;;;34.17;19.02;;;10.00;99.90;;;10.22;74.59;100688.44;5096951;28;20381;-71
2021/04/05 04:00:01;;;;;;;32.72;17.77;;;10.10;99.90;;;10.17;74.26;100662.94;5096872;28;20389;-71
2021/04/05 04:02:40;;;;;;;34.45;18.00;;;10.10;99.90;;;10.21;74.74;100691.09;5096488;28;20405;-70
2021/04/05 04:05:14;;;;;;;34.00;17.83;;;10.10;99.90;;;10.39;74.27;100691.00;5096727;28;20048;-70
2021/04/05 04:07:52;;;;;;;36.22;18.33;;;10.20;99.90;;;10.16;74.20;100682.34;5096887;28;20051;-71
2021/04/05 04:10:25;;;;;;;29.88;17.92;;;10.10;99.90;;;10.25;74.65;100680.50;5112257;28;20404;-70
2021/04/05 04:12:58;;;;;;;35.67;18.63;;;10.10;99.90;;;10.23;74.76;100668.19;5096511;28;20608;-71
2021/04/05 04:15:27;;;;;;;34.22;18.23;;;10.00;99.90;;;10.24;74.51;100672.59;5096294;28;20043;-71
2021/04/05 04:17:57;;;;;;;35.03;17.90;;;10.10;99.90;;;10.06;75.26;100675.31;5096061;28;20080;-71
2021/04/05 04:20:25;;;;;;;36.33;17.80;;;10.00;99.90;;;10.17;75.55;100668.22;5094793;28;20048;-70
2021/04/05 04:22:57;;;;;;;33.50;18.08;;;10.00;99.90;;;10.13;75.63;100671.75;5096182;28;20064;-70
2021/04/05 04:25:25;;;;;;;;;;;9.90;99.90;;;10.10;76.10;100663.88;5096586;28;20036;-70
2021/04/05 04:27:53;;;;;;;42.17;17.60;;;9.90;99.90;;;10.08;76.07;100644.47;5096084;28;19962;-71
2021/04/05 04:30:32;;;;;;;37.88;19.40;;;9.90;99.90;;;10.16;76.17;100654.16;5094623;28;20489;-70
2021/04/05 04:33:08;;;;;;;34.22;18.20;;;9.90;99.90;;;10.13;76.58;100655.91;5096103;28;20036;-70
2021/04/05 04:35:39;;;;;;;35.25;18.08;;;9.90;99.90;;;10.06;76.48;100651.53;5095939;28;20471;-70
2021/04/05 04:38:07;;;;;;;37.55;18.75;;;9.90;99.90;;;10.14;76.46;100636.53;5095952;28;20061;-70
2021/04/05 04:40:36;;;;;;;38.70;17.30;;;9.90;99.90;;;10.07;76.15;100621.56;5095873;28;20048;-70
2021/04/05 04:43:08;;;;;;;45.60;18.85;;;10.00;99.90;;;10.10;75.94;100624.22;5095706;28;20044;-70
2021/04/05 04:45:38;;;;;;;35.92;17.33;;;9.90;99.90;;;9.97;75.94;100595.19;5111543;28;20044;-70
2021/04/05 04:48:07;;;;;;;35.92;17.75;;;9.90;99.90;;;9.96;76.02;100614.59;5095613;28;20489;-70
2021/04/05 04:50:35;;;;;;;33.95;15.95;;;9.90;99.90;;;10.14;75.81;100615.41;5095674;28;20055;-70
2021/04/05 04:53:04;;;;;;;34.60;16.58;;;10.00;99.90;;;10.08;77.07;100610.13;5095471;28;20082;-70
2021/04/05 04:55:32;;;;;;;32.85;16.58;;;9.90;99.90;;;10.00;76.94;100591.66;5093953;28;20121;-71
2021/04/05 04:58:09;;;;;;;33.10;16.90;;;9.80;99.90;;;9.89;76.61;100556.53;5095545;28;20037;-71
2021/04/05 05:00:37;;;;;;;33.65;16.75;;;9.90;99.90;;;10.15;76.36;100606.56;5095505;28;20064;-71
2021/04/05 05:03:06;;;;;;;31.67;12.18;;;9.90;99.90;;;9.58;77.20;100655.28;5095348;28;20044;-70
2021/04/05 05:05:35;;;;;;;22.40;8.13;;;9.60;99.90;;;9.33;76.28;100669.44;5093938;28;20037;-70
2021/04/05 05:08:05;;;;;;;18.90;6.68;;;9.30;99.90;;;8.95;76.94;100664.25;5095134;28;20043;-70
2021/04/05 05:10:34;;;;;;;23.65;6.32;;;9.00;99.90;;;8.66;77.80;100669.53;5095360;28;20048;-70
2021/04/05 05:13:02;;;;;;;19.52;6.38;;;8.60;99.90;;;8.76;78.31;100670.41;5094010;28;20067;-70
2021/04/05 05:15:35;;;;;;;19.50;5.78;;;8.60;99.90;;;8.67;77.94;100663.38;5093730;28;20032;-70
2021/04/05 05:18:05;;;;;;;27.05;5.93;;;8.60;99.90;;;8.45;78.88;100668.66;5095164;28;20043;-70
2021/04/05 05:20:32;;;;;;;16.45;5.80;;;8.40;99.90;;;8.43;79.20;100667.75;5094982;28;20048;-71
2021/04/05 05:23:03;;;;;;;20.42;6.13;;;8.30;99.90;;;8.01;79.50;100642.22;5095214;28;20397;-70
2021/04/05 05:25:34;;;;;;;18.30;6.00;;;8.10;99.90;;;8.27;79.67;100684.41;5095094;28;20047;-70
2021/04/05 05:28:05;;;;;;;19.02;5.90;;;8.10;99.90;;;8.12;79.96;100680.88;5093715;28;20436;-70
2021/04/05 05:30:34;;;;;;;21.10;6.35;;;8.00;99.90;;;8.19;80.83;100674.72;5094937;28;20043;-70
2021/04/05 05:33:05;;;;;;;20.98;5.70;;;8.00;99.90;;;8.01;80.19;100650.97;5094730;28;20068;-70
2021/04/05 05:35:33;;;;;;;19.25;5.97;;;8.00;99.90;;;8.14;80.85;100671.22;5094828;28;20040;-70
2021/04/05 05:38:03;;;;;;;18.67;6.30;;;8.10;99.90;;;8.51;79.73;100701.16;5094752;28;20082;-70
2021/04/05 05:40:33;;;;;;;20.20;6.47;;;8.30;99.90;;;8.28;80.28;100700.25;5094758;28;20089;-70
2021/04/05 05:43:21;;;;;;;24.80;6.55;;;8.20;99.90;;;8.27;79.56;100705.50;5094740;28;20039;-70
2021/04/05 05:46:08;;;;;;;23.67;6.55;;;8.20;99.90;;;8.20;79.54;100709.84;5094556;28;20393;-70
2021/04/05 05:48:53;;;;;;;15.43;6.53;;;8.10;99.90;;;8.13;78.69;100714.22;5093153;28;20105;-70
2021/04/05 05:51:36;;;;;;;19.53;7.00;;;8.10;99.90;;;8.38;78.58;100707.28;5094434;28;20512;-70
2021/04/05 05:54:13;;;;;;;15.43;6.05;;;8.20;99.90;;;8.51;78.31;100721.38;5094362;28;20052;-70
2021/04/05 05:56:49;;;;;;;24.85;7.00;;;8.40;99.90;;;8.42;77.60;100709.03;5094422;28;20055;-70
2021/04/05 05:59:24;;;;;;;24.98;7.22;;;8.40;99.90;;;8.24;77.30;100706.34;5094435;28;20493;-70
2021/04/05 06:02:06;;;;;;;20.45;6.93;;;8.20;99.90;;;8.04;77.45;100711.56;5094286;28;20040;-70
2021/04/05 06:04:49;;;;;;;17.40;6.32;;;8.10;99.90;;;8.11;77.41;100733.50;5093724;28;20048;-70
2021/04/05 06:07:27;;;;;;;20.02;6.72;;;8.10;99.90;;;8.20;77.24;100713.38;5094248;28;20047;-70
2021/04/05 06:10:04;;;;;;;13.00;6.20;;;8.10;99.90;;;8.21;77.35;100701.94;5094163;28;20044;-71
2021/04/05 06:12:42;;;;;;;19.70;6.53;;;8.00;99.90;;;7.92;76.78;100706.25;5093938;28;20101;-71
2021/04/05 06:15:21;;;;;;;19.33;6.90;;;7.80;99.90;;;7.92;75.98;100713.25;5092873;28;20086;-71
2021/04/05 06:18:14;;;;;;;19.25;6.13;;;7.80;99.90;;;7.81;76.59;100720.25;5094029;28;20040;-70
2021/04/05 06:20:49;;;;;;;19.92;5.97;;;7.70;99.90;;;7.75;76.78;100718.47;5094041;28;20068;-71
2021/04/05 06:23:40;;;;;;;18.07;7.00;;;7.70;99.90;;;7.74;76.98;100735.13;5094037;28;20040;-70
2021/04/05 06:26:20;;;;;;;14.13;5.57;;;7.70;99.90;;;7.36;77.59;100741.94;5093903;28;20113;-70
2021/04/05 06:28:54;;;;;;;18.23;5.73;;;7.40;99.90;;;7.38;78.31;100765.63;5093842;28;20431;-70
2021/04/05 06:31:43;;;;;;;10.00;5.43;;;7.40;99.90;;;7.19;77.89;100770.78;5093570;28;20054;-70
2021/04/05 06:34:35;;;;;;;11.43;4.97;;;7.20;99.90;;;7.13;78.19;100781.25;5094003;28;20051;-71
2021/04/05 06:37:21;;;;;;;12.07;5.63;;;7.10;99.90;;;6.97;77.68;100807.38;5093357;28;20075;-70
2021/04/05 06:39:51;;;;;;;16.53;6.40;;;7.00;99.90;;;6.93;77.42;100795.09;5093244;28;20386;-70
2021/04/05 06:43:01;;;;;;;20.55;5.97;;;6.90;99.90;;;6.68;77.76;100806.25;5093678;28;20048;-71
2021/04/05 06:45:43;;;;;;;24.70;6.67;;;6.80;99.90;;;6.61;77.73;100804.41;5071527;28;20054;-70
2021/04/05 06:49:17;;;;;;;22.63;7.33;;;6.70;99.90;;;6.53;78.08;100808.69;5093219;28;20051;-70
2021/04/05 06:52:10;;;;;;;26.40;6.70;;;6.60;99.90;;;6.45;78.07;100823.47;5093422;28;20039;-70
2021/04/05 06:55:07;;;;;;;31.70;8.47;;;6.50;99.90;;;6.58;77.72;100825.41;5093488;28;20123;-70
2021/04/05 06:57:55;;;;;;;34.90;7.80;;;6.50;99.90;;;6.59;76.27;100801.75;5093301;28;20040;-70
2021/04/05 07:00:29;;;;;;;29.93;8.03;;;6.60;99.90;;;6.70;75.86;100836.91;5093157;28;20051;-70
2021/04/05 07:03:47;;;;;;;31.10;9.17;;;6.60;99.90;;;6.64;74.54;100821.06;5093197;28;20036;-71
2021/04/05 07:06:47;;;;;;;30.13;7.27;;;6.70;99.90;;;6.24;73.36;100832.00;5093146;28;20500;-70
2021/04/05 07:09:24;;;;;;;27.80;8.30;;;6.40;99.90;;;6.38;74.41;100844.44;5093093;28;20040;-70
2021/04/05 07:12:20;;;;;;;39.57;8.87;;;6.30;99.90;;;6.43;71.89;100848.88;5093297;28;20040;-70
2021/04/05 07:15:01;;;;;;;41.13;10.10;;;6.40;99.90;;;6.24;69.83;100856.53;5091575;28;20479;-70
2021/04/05 07:17:41;;;;;;;27.83;7.97;;;6.30;99.90;;;6.12;67.20;100845.84;5090920;28;20493;-70
2021/04/05 07:20:14;;;;;;;;;;;6.30;99.90;;;6.22;66.65;100855.63;5093239;28;20427;-71
2021/04/05 07:23:00;;;;;;;33.07;8.70;;;6.20;99.90;;;5.67;66.31;100737.59;5092832;28;19920;-70
2021/04/05 07:25:37;;;;;;;26.77;8.03;;;6.30;99.90;;;6.34;65.17;100858.41;5092659;28;20071;-70
2021/04/05 07:28:16;;;;;;;28.33;8.70;;;6.40;99.90;;;6.32;64.82;100841.75;5092630;28;20059;-70
2021/04/05 07:30:47;;;;;;;28.20;8.57;;;6.40;99.90;;;6.48;64.40;100857.69;5091957;28;20059;-70
2021/04/05 07:33:35;;;;;;;21.00;7.13;;;6.50;99.90;;;6.47;61.74;100871.66;5092584;28;20040;-71
2021/04/05 07:36:14;;;;;;;18.73;7.20;;;6.40;99.90;;;6.31;61.46;100879.38;5092633;28;20044;-71
2021/04/05 07:38:52;;;;;;;18.37;7.30;;;6.30;99.90;;;6.43;60.66;100888.28;5092654;28;20044;-70
2021/04/05 07:41:31;;;;;;;24.30;6.93;;;6.40;99.90;;;6.31;60.19;100868.84;5092670;28;20044;-70
2021/04/05 07:44:17;;;;;;;21.53;8.07;;;6.30;99.90;;;6.45;59.12;100881.28;5091501;28;20101;-70
2021/04/05 07:46:52;;;;;;;24.20;7.93;;;6.40;99.90;;;6.33;58.30;100877.63;5092841;28;20048;-70
2021/04/05 07:49:45;;;;;;;21.27;7.33;;;6.40;99.90;;;6.47;57.64;100880.44;5092563;28;20040;-70
2021/04/05 07:52:22;;;;;;;19.77;6.60;;;6.40;99.90;;;6.38;55.83;100886.47;5092479;28;20504;-70
2021/04/05 07:54:52;;;;;;;20.27;7.13;;;6.30;99.90;;;6.50;55.31;100884.84;5091232;28;20055;-70
2021/04/05 07:57:35;;;;;;;17.57;7.00;;;6.50;99.90;;;6.41;55.44;100887.38;5090838;28;20040;-70
2021/04/05 08:00:12;;;;;;;18.07;7.13;;;6.50;99.90;;;6.25;55.61;100902.06;5092486;28;20044;-71
2021/04/05 08:02:56;;;;;;;20.37;6.97;;;6.30;99.90;;;6.23;57.48;100909.03;5092359;28;20106;-70
2021/04/05 08:05:40;;;;;;;21.80;7.63;;;6.10;99.90;;;6.21;59.67;100914.25;5092716;28;20047;-71
2021/04/05 08:08:36;;;;;;;17.30;6.30;;;6.20;99.90;;;6.14;63.50;100938.66;5092651;28;20058;-70
2021/04/05 08:11:46;;;;;;;24.53;6.63;;;6.10;99.90;;;6.20;61.59;100936.13;5092320;28;20367;-70
2021/04/05 08:14:31;;;;;;;12.23;5.93;;;6.20;99.90;;;6.03;59.68;100940.25;5070461;28;20425;-70
2021/04/05 08:17:16;;;;;;;12.43;5.70;;;6.00;99.90;;;6.24;59.15;100948.44;5092272;28;20044;-70
2021/04/05 08:19:56;;;;;;;22.50;6.83;;;6.20;99.90;;;6.30;59.47;100930.13;5092131;28;20370;-70
2021/04/05 08:22:36;;;;;;;20.67;6.47;;;6.30;99.90;;;6.38;60.01;100952.16;5092558;28;20052;-70
2021/04/05 08:25:14;;;;;;;19.37;5.90;;;6.30;99.90;;;6.35;59.24;100931.06;5092098;28;20116;-70
2021/04/05 08:27:54;;;;;;;20.90;6.03;;;6.30;99.90;;;6.44;56.76;100958.34;5092824;28;20101;-70
2021/04/05 08:30:29;;;;;;;19.27;6.60;;;6.40;99.90;;;6.45;56.50;100952.19;5096298;28;20059;-71
2021/04/05 08:33:12;;;;;;;18.47;6.50;;;6.40;99.90;;;6.33;55.75;100955.53;5096114;28;20067;-70
2021/04/05 08:35:47;;;;;;;22.90;6.57;;;6.30;99.90;;;6.32;56.54;100951.16;5095959;28;20052;-70
2021/04/05 08:38:24;;;;;;;12.90;6.73;;;6.30;99.90;;;6.39;56.14;100961.78;5095848;28;20071;-70
2021/04/05 08:41:02;;;;;;;21.37;7.10;;;6.30;99.90;;;6.21;57.34;100945.75;5095952;28;20036;-70
2021/04/05 08:43:47;;;;;;;17.17;6.33;;;6.20;99.90;;;6.02;60.23;100964.72;5094379;28;20556;-70
2021/04/05 08:46:19;;;;;;;28.87;7.17;;;6.20;99.90;;;6.19;62.42;101004.38;5095725;28;20482;-70
2021/04/05 08:48:52;;;;;;;24.10;7.33;;;6.10;99.90;;;6.01;64.10;101019.84;5095719;28;20036;-70
2021/04/05 08:51:26;;;;;;;30.63;7.00;;;6.10;99.90;;;6.19;65.32;101030.66;5096002;28;20042;-71
2021/04/05 08:53:59;;;;;;;17.53;7.20;;;6.10;99.90;;;6.06;65.38;101029.56;5095528;28;20044;-70
2021/04/05 08:56:32;;;;;;;19.33;6.67;;;6.10;99.90;;;5.95;66.46;101046.88;5095511;28;20040;-70
2021/04/05 08:59:06;;;;;;;18.50;6.73;;;5.90;99.90;;;5.57;65.56;101045.28;5095296;28;20055;-71
2021/04/05 09:01:44;;;;;;;18.83;6.40;;;5.70;99.90;;;5.72;64.75;101032.44;5094938;28;20439;-70
2021/04/05 09:04:16;;;;;;;10.73;5.30;;;5.70;99.90;;;5.72;63.10;101069.19;5095424;28;20051;-71
2021/04/05 09:06:57;;;;;;;13.80;5.23;;;5.70;99.90;;;5.78;61.26;101047.41;5094087;28;20105;-71
2021/04/05 09:09:26;;;;;;;12.87;5.90;;;5.80;99.90;;;5.61;58.96;101047.13;5095333;28;20040;-71
2021/04/05 09:11:55;;;;;;;14.00;5.93;;;5.70;99.90;;;5.57;58.02;101047.91;5093567;28;20123;-71
2021/04/05 09:14:26;;;;;;;13.17;6.10;;;5.60;99.90;;;5.79;57.71;101060.53;5095111;28;20040;-71
2021/04/05 09:17:18;;;;;;;16.53;5.97;;;5.70;99.90;;;5.56;58.71;101046.13;5093806;28;20070;-70
2021/04/05 09:20:34;;;;;;;18.43;6.80;;;5.70;99.90;;;5.79;57.99;101059.69;5094813;28;20067;-70
2021/04/05 09:23:45;;;;;;;17.33;5.87;;;5.80;99.90;;;6.00;58.12;101065.34;5068898;28;20044;-70
2021/04/05 09:27:22;;;;;;;24.57;7.33;;;5.80;99.90;;;5.92;56.53;101073.06;5076223;28;20059;-70
2021/04/05 09:30:12;;;;;;;23.83;6.57;;;5.90;99.90;;;6.03;54.04;101065.38;5032408;28;20080;-70
2021/04/05 09:32:56;;;;;;;22.42;7.68;;;5.90;99.90;;;6.18;53.67;101086.63;5032488;28;20057;-71
2021/04/05 09:35:47;;;;;;;19.97;7.23;;;6.10;99.90;;;5.98;53.39;101094.16;5082959;28;20424;-72
2021/04/05 09:38:36;;;;;;;17.63;6.68;;;6.00;99.90;;;6.01;52.14;101077.59;5093666;28;20052;-71
2021/04/05 09:41:30;;;;;;;33.10;7.10;;;6.00;99.90;;;5.73;52.49;101083.19;5093957;28;20554;-71
2021/04/05 09:44:27;;;;;;;17.67;6.70;;;5.80;99.90;;;5.84;50.83;101084.28;5094675;28;20401;-71
2021/04/05 09:47:23;;;;;;;14.17;6.00;;;5.80;99.90;;;5.96;48.99;101084.50;5094637;28;20047;-70
2021/04/05 09:50:21;;;;;;;20.03;6.90;;;5.90;99.90;;;5.80;48.29;101096.44;5094470;28;20046;-70
2021/04/05 09:53:28;;;;;;;14.93;6.50;;;5.80;99.90;;;6.17;47.86;101117.28;5094500;28;20142;-70
2021/04/05 09:56:03;;;;;;;23.63;7.10;;;6.00;99.90;;;6.04;51.26;101109.16;5063737;28;20056;-71
2021/04/05 09:58:38;;;;;;;24.07;7.40;;;6.00;99.90;;;6.10;55.10;101101.38;5093046;28;20405;-70
2021/04/05 10:01:11;;;;;;;26.63;8.10;;;6.00;99.90;;;5.85;56.47;101105.31;5094379;28;20059;-70
2021/04/05 10:03:43;;;;;;;34.10;9.13;;;5.90;99.90;;;5.61;57.60;101083.84;5094489;28;20105;-71
2021/04/05 10:06:16;;;;;;;28.03;7.97;;;5.70;99.90;;;5.99;58.22;101116.94;5094280;28;20489;-71
2021/04/05 10:08:51;;;;;;;24.50;7.13;;;5.80;99.90;;;5.88;56.35;101110.63;5092943;28;20040;-70
2021/04/05 10:11:19;;;;;;;22.07;7.57;;;5.90;99.90;;;5.85;54.97;101071.19;5093848;28;20416;-70
2021/04/05 10:13:50;;;;;;;24.93;8.33;;;5.90;99.90;;;5.36;53.82;101005.56;5093981;28;20036;-70
2021/04/05 10:16:22;;;;;;;18.87;7.20;;;5.90;99.90;;;6.03;52.19;101118.78;5094119;28;20094;-70
2021/04/05 10:18:56;;;;;;;18.23;6.07;;;6.00;99.90;;;6.00;51.24;101123.09;5093807;28;20052;-70
2021/04/05 10:21:26;;;;;;;26.37;7.57;;;5.90;99.90;;;5.87;49.90;101098.34;5093649;28;20060;-70
2021/04/05 10:24:00;;;;;;;24.80;6.37;;;6.00;99.90;;;6.12;49.45;101121.56;5093799;28;20040;-70
2021/04/05 10:26:32;;;;;;;20.17;6.50;;;6.10;99.90;;;6.05;49.03;101106.56;5093587;28;20554;-70
2021/04/05 10:29:05;;;;;;;16.90;6.43;;;6.10;99.90;;;6.19;48.65;101115.53;5092144;28;20489;-71
2021/04/05 10:31:34;;;;;;;20.20;6.70;;;6.10;99.90;;;6.13;48.40;101078.69;5092471;28;20417;-71
2021/04/05 10:34:07;;;;;;;22.30;6.50;;;6.30;99.90;;;6.66;48.67;101125.97;5092043;28;20040;-70
2021/04/05 10:36:40;;;;;;;16.57;6.33;;;6.50;99.90;;;6.73;45.39;101110.31;5092034;28;20044;-71
2021/04/05 10:39:08;;;;;;;14.17;6.17;;;6.70;99.90;;;6.66;45.33;101115.44;5093214;28;20139;-71
2021/04/05 10:41:45;;;;;;;12.10;5.97;;;6.60;99.90;;;6.78;44.76;101150.66;5092995;28;20047;-71
2021/04/05 10:44:15;;;;;;;14.90;6.63;;;6.70;99.90;;;6.71;45.00;101113.75;5093165;28;20036;-70
2021/04/05 10:46:47;;;;;;;18.90;6.17;;;6.70;99.90;;;6.81;44.43;101139.31;5093437;28;20043;-71
2021/04/05 10:49:24;;;;;;;14.40;5.83;;;6.80;99.90;;;6.47;44.42;101139.63;5093124;28;20050;-70
2021/04/05 10:51:56;;;;;;;15.40;6.40;;;6.50;99.90;;;6.90;45.04;101144.72;5092491;28;20097;-70